sensor_id;sensor_type;location;lat;lon;timestamp;pressure;altitude;pressure_sealevel;temperature;humidity
46129;BME280;31860;45.186;5.790;2023-09-07T00:00:18;99284.09;;;26.19;72.06
46129;BME280;31860;45.186;5.790;2023-09-07T00:02:43;99284.19;;;26.18;72.25
46129;BME280;31860;45.186;5.790;2023-09-07T00:05:09;99288.78;;;26.16;72.41
46129;BME280;31860;45.186;5.790;2023-09-07T00:07:35;99284.38;;;26.15;72.16
46129;BME280;31860;45.186;5.790;2023-09-07T00:10:01;99288.88;;;26.14;72.24
46129;BME280;31860;45.186;5.790;2023-09-07T00:12:26;99285.44;;;26.12;72.42
46129;BME280;31860;45.186;5.790;2023-09-07T00:14:53;99285.69;;;26.08;73.02
46129;BME280;31860;45.186;5.790;2023-09-07T00:17:19;99293.72;;;26.08;72.93
46129;BME280;31860;45.186;5.790;2023-09-07T00:19:45;99287.59;;;26.06;73.39
46129;BME280;31860;45.186;5.790;2023-09-07T00:22:13;99286.91;;;26.02;73.39
46129;BME280;31860;45.186;5.790;2023-09-07T00:24:39;99285.97;;;26.03;73.60
46129;BME280;31860;45.186;5.790;2023-09-07T00:27:04;99288.56;;;26.05;73.71
46129;BME280;31860;45.186;5.790;2023-09-07T00:29:31;99286.84;;;26.04;73.43
46129;BME280;31860;45.186;5.790;2023-09-07T00:31:56;99281.47;;;26.04;73.68
46129;BME280;31860;45.186;5.790;2023-09-07T00:34:22;99284.00;;;26.07;73.86
46129;BME280;31860;45.186;5.790;2023-09-07T00:36:47;99283.03;;;26.08;73.64
46129;BME280;31860;45.186;5.790;2023-09-07T00:39:12;99286.66;;;26.07;73.73
46129;BME280;31860;45.186;5.790;2023-09-07T00:41:38;99292.25;;;26.02;73.73
46129;BME280;31860;45.186;5.790;2023-09-07T00:44:03;99293.34;;;26.00;73.87
46129;BME280;31860;45.186;5.790;2023-09-07T00:46:29;99290.91;;;25.95;74.38
46129;BME280;31860;45.186;5.790;2023-09-07T00:48:55;99288.34;;;25.94;74.61
46129;BME280;31860;45.186;5.790;2023-09-07T00:51:21;99289.38;;;25.91;74.65
46129;BME280;31860;45.186;5.790;2023-09-07T00:53:46;99281.44;;;25.90;74.45
46129;BME280;31860;45.186;5.790;2023-09-07T00:56:12;99284.31;;;25.87;75.05
46129;BME280;31860;45.186;5.790;2023-09-07T00:58:38;99282.69;;;25.84;75.04
46129;BME280;31860;45.186;5.790;2023-09-07T01:01:03;99287.47;;;25.79;74.83
46129;BME280;31860;45.186;5.790;2023-09-07T01:03:29;99291.06;;;25.78;75.14
46129;BME280;31860;45.186;5.790;2023-09-07T01:06:08;99286.75;;;25.76;75.26
46129;BME280;31860;45.186;5.790;2023-09-07T01:08:45;99280.72;;;25.72;74.88
46129;BME280;31860;45.186;5.790;2023-09-07T01:11:15;99286.19;;;25.71;74.72
46129;BME280;31860;45.186;5.790;2023-09-07T01:13:41;99286.38;;;25.68;75.02
46129;BME280;31860;45.186;5.790;2023-09-07T01:16:08;99280.34;;;25.64;74.86
46129;BME280;31860;45.186;5.790;2023-09-07T01:18:35;99276.03;;;25.62;75.11
46129;BME280;31860;45.186;5.790;2023-09-07T01:21:05;99272.78;;;25.57;75.52
46129;BME280;31860;45.186;5.790;2023-09-07T01:23:35;99276.59;;;25.53;75.80
46129;BME280;31860;45.186;5.790;2023-09-07T01:26:01;99266.72;;;25.53;75.85
46129;BME280;31860;45.186;5.790;2023-09-07T01:28:27;99272.06;;;25.53;75.74
46129;BME280;31860;45.186;5.790;2023-09-07T01:30:52;99269.41;;;25.53;75.71
46129;BME280;31860;45.186;5.790;2023-09-07T01:33:17;99268.56;;;25.53;75.21
46129;BME280;31860;45.186;5.790;2023-09-07T01:35:43;99270.47;;;25.51;75.17
46129;BME280;31860;45.186;5.790;2023-09-07T01:38:09;99274.94;;;25.50;75.59
46129;BME280;31860;45.186;5.790;2023-09-07T01:40:34;99276.75;;;25.50;75.57
46129;BME280;31860;45.186;5.790;2023-09-07T01:43:00;99277.63;;;25.50;75.69
46129;BME280;31860;45.186;5.790;2023-09-07T01:45:26;99271.31;;;25.51;75.84
46129;BME280;31860;45.186;5.790;2023-09-07T01:47:51;99272.28;;;25.50;76.15
46129;BME280;31860;45.186;5.790;2023-09-07T01:50:17;99272.06;;;25.53;75.82
46129;BME280;31860;45.186;5.790;2023-09-07T01:52:46;99273.91;;;25.53;76.17
46129;BME280;31860;45.186;5.790;2023-09-07T01:55:12;99281.06;;;25.52;76.19
46129;BME280;31860;45.186;5.790;2023-09-07T01:57:37;99272.28;;;25.50;76.32
46129;BME280;31860;45.186;5.790;2023-09-07T02:00:03;99273.31;;;25.48;76.52
46129;BME280;31860;45.186;5.790;2023-09-07T02:02:29;99270.56;;;25.49;76.64
46129;BME280;31860;45.186;5.790;2023-09-07T02:04:55;99274.16;;;25.48;76.51
46129;BME280;31860;45.186;5.790;2023-09-07T02:07:20;99268.91;;;25.47;76.52
46129;BME280;31860;45.186;5.790;2023-09-07T02:09:45;99266.25;;;25.47;76.36
46129;BME280;31860;45.186;5.790;2023-09-07T02:12:11;99272.53;;;25.46;76.61
46129;BME280;31860;45.186;5.790;2023-09-07T02:14:36;99271.00;;;25.42;76.75
46129;BME280;31860;45.186;5.790;2023-09-07T02:17:02;99269.44;;;25.38;76.80
46129;BME280;31860;45.186;5.790;2023-09-07T02:19:27;99269.59;;;25.34;77.60
46129;BME280;31860;45.186;5.790;2023-09-07T02:21:52;99271.59;;;25.31;77.68
46129;BME280;31860;45.186;5.790;2023-09-07T02:24:19;99270.72;;;25.30;78.13
46129;BME280;31860;45.186;5.790;2023-09-07T02:26:44;99269.22;;;25.26;78.26
46129;BME280;31860;45.186;5.790;2023-09-07T02:29:13;99269.88;;;25.30;78.36
46129;BME280;31860;45.186;5.790;2023-09-07T02:31:40;99273.50;;;25.29;78.42
46129;BME280;31860;45.186;5.790;2023-09-07T02:34:05;99274.25;;;25.31;78.10
46129;BME280;31860;45.186;5.790;2023-09-07T02:36:31;99275.13;;;25.31;78.21
46129;BME280;31860;45.186;5.790;2023-09-07T02:38:56;99271.59;;;25.31;78.17
46129;BME280;31860;45.186;5.790;2023-09-07T02:41:22;99263.47;;;25.32;78.67
46129;BME280;31860;45.186;5.790;2023-09-07T02:43:47;99266.09;;;25.34;78.33
46129;BME280;31860;45.186;5.790;2023-09-07T02:46:12;99280.28;;;25.34;78.87
46129;BME280;31860;45.186;5.790;2023-09-07T02:48:38;99271.50;;;25.32;78.60
46129;BME280;31860;45.186;5.790;2023-09-07T02:51:03;99274.94;;;25.34;78.66
46129;BME280;31860;45.186;5.790;2023-09-07T02:53:29;99282.38;;;25.29;79.21
46129;BME280;31860;45.186;5.790;2023-09-07T02:55:55;99286.44;;;25.21;80.66
46129;BME280;31860;45.186;5.790;2023-09-07T02:58:22;99280.69;;;25.13;81.23
46129;BME280;31860;45.186;5.790;2023-09-07T03:00:47;99284.97;;;25.15;81.62
46129;BME280;31860;45.186;5.790;2023-09-07T03:03:13;99284.06;;;25.01;82.96
46129;BME280;31860;45.186;5.790;2023-09-07T03:05:40;99279.47;;;25.03;82.92
46129;BME280;31860;45.186;5.790;2023-09-07T03:08:05;99279.41;;;25.04;83.24
46129;BME280;31860;45.186;5.790;2023-09-07T03:10:32;99282.59;;;25.11;83.01
46129;BME280;31860;45.186;5.790;2023-09-07T03:12:57;99281.63;;;25.12;83.04
46129;BME280;31860;45.186;5.790;2023-09-07T03:15:23;99286.19;;;25.10;83.70
46129;BME280;31860;45.186;5.790;2023-09-07T03:17:48;99282.59;;;25.11;83.37
46129;BME280;31860;45.186;5.790;2023-09-07T03:20:13;99286.88;;;25.13;83.10
46129;BME280;31860;45.186;5.790;2023-09-07T03:22:44;99282.50;;;25.12;83.48
46129;BME280;31860;45.186;5.790;2023-09-07T03:25:10;99279.81;;;25.12;83.09
46129;BME280;31860;45.186;5.790;2023-09-07T03:27:36;99274.56;;;25.11;82.83
46129;BME280;31860;45.186;5.790;2023-09-07T03:30:03;99276.63;;;25.06;83.44
46129;BME280;31860;45.186;5.790;2023-09-07T03:32:29;99273.38;;;25.01;83.60
46129;BME280;31860;45.186;5.790;2023-09-07T03:34:58;99278.81;;;24.99;83.70
46129;BME280;31860;45.186;5.790;2023-09-07T03:37:24;99275.44;;;24.96;84.72
46129;BME280;31860;45.186;5.790;2023-09-07T03:39:50;99276.31;;;24.96;85.13
46129;BME280;31860;45.186;5.790;2023-09-07T03:42:15;99278.28;;;24.93;86.02
46129;BME280;31860;45.186;5.790;2023-09-07T03:44:41;99280.59;;;24.99;85.84
46129;BME280;31860;45.186;5.790;2023-09-07T03:47:06;99278.72;;;25.01;85.60
46129;BME280;31860;45.186;5.790;2023-09-07T03:49:31;99278.72;;;25.01;85.19
46129;BME280;31860;45.186;5.790;2023-09-07T03:51:57;99275.34;;;24.97;85.43
46129;BME280;31860;45.186;5.790;2023-09-07T03:54:22;99281.47;;;24.99;85.54
46129;BME280;31860;45.186;5.790;2023-09-07T03:56:47;99278.13;;;24.96;86.15
46129;BME280;31860;45.186;5.790;2023-09-07T03:59:13;99277.44;;;24.92;86.77
46129;BME280;31860;45.186;5.790;2023-09-07T04:01:38;99280.94;;;24.93;86.55
46129;BME280;31860;45.186;5.790;2023-09-07T04:04:04;99272.94;;;24.93;86.60
46129;BME280;31860;45.186;5.790;2023-09-07T04:06:29;99282.00;;;24.90;86.97
46129;BME280;31860;45.186;5.790;2023-09-07T04:08:54;99292.59;;;24.92;86.90
46129;BME280;31860;45.186;5.790;2023-09-07T04:11:20;99290.13;;;24.89;87.19
46129;BME280;31860;45.186;5.790;2023-09-07T04:13:45;99287.44;;;24.89;87.33
46129;BME280;31860;45.186;5.790;2023-09-07T04:16:11;99292.00;;;24.87;87.61
46129;BME280;31860;45.186;5.790;2023-09-07T04:18:36;99290.28;;;24.86;87.96
46129;BME280;31860;45.186;5.790;2023-09-07T04:21:05;99288.72;;;24.82;88.72
46129;BME280;31860;45.186;5.790;2023-09-07T04:23:31;99288.03;;;24.78;88.72
46129;BME280;31860;45.186;5.790;2023-09-07T04:26:10;99293.56;;;24.75;90.25
46129;BME280;31860;45.186;5.790;2023-09-07T04:28:36;99291.91;;;24.73;89.65
46129;BME280;31860;45.186;5.790;2023-09-07T04:31:02;99296.38;;;24.72;89.75
46129;BME280;31860;45.186;5.790;2023-09-07T04:33:32;99292.91;;;24.70;90.79
46129;BME280;31860;45.186;5.790;2023-09-07T04:36:07;99293.00;;;24.69;91.90
46129;BME280;31860;45.186;5.790;2023-09-07T04:38:32;99298.25;;;24.70;90.99
46129;BME280;31860;45.186;5.790;2023-09-07T04:41:08;99302.50;;;24.74;93.30
46129;BME280;31860;45.186;5.790;2023-09-07T04:43:33;99298.72;;;24.78;92.08
46129;BME280;31860;45.186;5.790;2023-09-07T04:45:58;99295.19;;;24.78;91.52
46129;BME280;31860;45.186;5.790;2023-09-07T04:48:24;99299.50;;;24.80;92.01
46129;BME280;31860;45.186;5.790;2023-09-07T04:51:00;99300.38;;;24.81;93.28
46129;BME280;31860;45.186;5.790;2023-09-07T04:53:28;99292.16;;;24.84;92.87
46129;BME280;31860;45.186;5.790;2023-09-07T04:55:53;99297.41;;;24.85;92.28
46129;BME280;31860;45.186;5.790;2023-09-07T04:58:19;99310.88;;;24.84;91.63
46129;BME280;31860;45.186;5.790;2023-09-07T05:00:44;99311.84;;;24.83;92.18
46129;BME280;31860;45.186;5.790;2023-09-07T05:03:09;99304.94;;;24.79;92.28
46129;BME280;31860;45.186;5.790;2023-09-07T05:05:35;99312.88;;;24.80;92.57
46129;BME280;31860;45.186;5.790;2023-09-07T05:08:00;99319.22;;;24.78;92.89
46129;BME280;31860;45.186;5.790;2023-09-07T05:10:26;99320.09;;;24.78;93.05
46129;BME280;31860;45.186;5.790;2023-09-07T05:12:52;99316.56;;;24.78;93.07
46129;BME280;31860;45.186;5.790;2023-09-07T05:15:17;99330.78;;;24.78;93.41
46129;BME280;31860;45.186;5.790;2023-09-07T05:17:42;99326.31;;;24.79;93.48
46129;BME280;31860;45.186;5.790;2023-09-07T05:20:08;99330.00;;;24.76;93.88
46129;BME280;31860;45.186;5.790;2023-09-07T05:22:34;99334.44;;;24.77;93.89
46129;BME280;31860;45.186;5.790;2023-09-07T05:25:02;99332.69;;;24.76;94.14
46129;BME280;31860;45.186;5.790;2023-09-07T05:27:28;99341.75;;;24.74;93.77
46129;BME280;31860;45.186;5.790;2023-09-07T05:29:53;99338.31;;;24.70;94.58
46129;BME280;31860;45.186;5.790;2023-09-07T05:32:19;99341.09;;;24.69;94.91
46129;BME280;31860;45.186;5.790;2023-09-07T05:34:44;99344.72;;;24.68;95.63
46129;BME280;31860;45.186;5.790;2023-09-07T05:37:09;99355.25;;;24.71;95.29
46129;BME280;31860;45.186;5.790;2023-09-07T05:39:35;99341.19;;;24.67;95.66
46129;BME280;31860;45.186;5.790;2023-09-07T05:42:00;99349.09;;;24.69;96.05
46129;BME280;31860;45.186;5.790;2023-09-07T05:44:25;99346.44;;;24.69;96.11
46129;BME280;31860;45.186;5.790;2023-09-07T05:46:51;99349.09;;;24.69;96.00
46129;BME280;31860;45.186;5.790;2023-09-07T05:49:16;99346.34;;;24.70;96.50
46129;BME280;31860;45.186;5.790;2023-09-07T05:51:41;99349.84;;;24.72;96.35
46129;BME280;31860;45.186;5.790;2023-09-07T05:54:07;99361.31;;;24.74;96.11
46129;BME280;31860;45.186;5.790;2023-09-07T05:56:32;99357.69;;;24.75;96.44
46129;BME280;31860;45.186;5.790;2023-09-07T05:58:59;99353.03;;;24.79;96.69
46129;BME280;31860;45.186;5.790;2023-09-07T06:01:24;99355.44;;;24.83;96.96
46129;BME280;31860;45.186;5.790;2023-09-07T06:03:49;99356.84;;;24.90;96.39
46129;BME280;31860;45.186;5.790;2023-09-07T06:06:15;99353.13;;;24.93;96.18
46129;BME280;31860;45.186;5.790;2023-09-07T06:08:40;99358.22;;;24.97;95.72
46129;BME280;31860;45.186;5.790;2023-09-07T06:11:05;99358.91;;;25.01;95.31
46129;BME280;31860;45.186;5.790;2023-09-07T06:13:31;99358.13;;;24.99;95.43
46129;BME280;31860;45.186;5.790;2023-09-07T06:15:56;99367.72;;;25.03;95.50
46129;BME280;31860;45.186;5.790;2023-09-07T06:18:22;99349.69;;;25.06;95.11
46129;BME280;31860;45.186;5.790;2023-09-07T06:20:47;99354.00;;;25.09;95.13
46129;BME280;31860;45.186;5.790;2023-09-07T06:23:13;99354.69;;;25.12;95.04
46129;BME280;31860;45.186;5.790;2023-09-07T06:25:38;99356.41;;;25.13;94.89
46129;BME280;31860;45.186;5.790;2023-09-07T06:28:04;99355.28;;;25.17;94.81
46129;BME280;31860;45.186;5.790;2023-09-07T06:30:29;99352.47;;;25.20;94.36
46129;BME280;31860;45.186;5.790;2023-09-07T06:32:55;99346.78;;;25.26;94.32
46129;BME280;31860;45.186;5.790;2023-09-07T06:35:21;99344.78;;;25.30;93.97
46129;BME280;31860;45.186;5.790;2023-09-07T06:37:47;99346.25;;;25.35;93.91
46129;BME280;31860;45.186;5.790;2023-09-07T06:40:12;99348.75;;;25.39;93.89
46129;BME280;31860;45.186;5.790;2023-09-07T06:42:38;99353.75;;;25.45;93.79
46129;BME280;31860;45.186;5.790;2023-09-07T06:45:04;99352.63;;;25.49;93.00
46129;BME280;31860;45.186;5.790;2023-09-07T06:47:30;99352.34;;;25.53;93.13
46129;BME280;31860;45.186;5.790;2023-09-07T06:49:56;99353.91;;;25.57;92.76
46129;BME280;31860;45.186;5.790;2023-09-07T06:52:22;99354.53;;;25.62;92.96
46129;BME280;31860;45.186;5.790;2023-09-07T06:54:47;99353.28;;;25.68;92.73
46129;BME280;31860;45.186;5.790;2023-09-07T06:57:15;99352.84;;;25.75;92.14
46129;BME280;31860;45.186;5.790;2023-09-07T06:59:41;99359.56;;;25.82;91.30
46129;BME280;31860;45.186;5.790;2023-09-07T07:02:06;99355.66;;;25.88;91.29
46129;BME280;31860;45.186;5.790;2023-09-07T07:04:31;99354.50;;;25.92;91.12
46129;BME280;31860;45.186;5.790;2023-09-07T07:06:57;99359.78;;;25.93;90.76
46129;BME280;31860;45.186;5.790;2023-09-07T07:09:22;99361.31;;;25.97;90.05
46129;BME280;31860;45.186;5.790;2023-09-07T07:11:48;99359.97;;;26.04;89.52
46129;BME280;31860;45.186;5.790;2023-09-07T07:14:14;99365.00;;;26.10;89.17
46129;BME280;31860;45.186;5.790;2023-09-07T07:16:39;99365.31;;;26.20;88.97
46129;BME280;31860;45.186;5.790;2023-09-07T07:19:05;99371.19;;;26.27;89.14
46129;BME280;31860;45.186;5.790;2023-09-07T07:21:30;99375.97;;;26.36;88.76
46129;BME280;31860;45.186;5.790;2023-09-07T07:23:55;99377.22;;;26.44;87.99
46129;BME280;31860;45.186;5.790;2023-09-07T07:26:21;99375.03;;;26.51;87.45
46129;BME280;31860;45.186;5.790;2023-09-07T07:28:46;99376.47;;;26.56;86.61
46129;BME280;31860;45.186;5.790;2023-09-07T07:31:11;99379.03;;;26.58;85.88
46129;BME280;31860;45.186;5.790;2023-09-07T07:33:37;99383.06;;;26.65;86.11
46129;BME280;31860;45.186;5.790;2023-09-07T07:36:04;99375.53;;;26.71;85.44
46129;BME280;31860;45.186;5.790;2023-09-07T07:38:29;99376.97;;;26.77;85.64
46129;BME280;31860;45.186;5.790;2023-09-07T07:40:54;99380.13;;;26.83;85.13
46129;BME280;31860;45.186;5.790;2023-09-07T07:43:20;99377.91;;;26.90;85.22
46129;BME280;31860;45.186;5.790;2023-09-07T07:45:45;99380.22;;;26.96;84.44
46129;BME280;31860;45.186;5.790;2023-09-07T07:48:10;99391.63;;;26.99;83.95
46129;BME280;31860;45.186;5.790;2023-09-07T07:50:40;99387.19;;;26.98;83.68
46129;BME280;31860;45.186;5.790;2023-09-07T07:53:06;99380.59;;;26.90;83.61
46129;BME280;31860;45.186;5.790;2023-09-07T07:55:36;99381.81;;;26.98;82.96
46129;BME280;31860;45.186;5.790;2023-09-07T07:58:07;99377.88;;;27.04;82.14
46129;BME280;31860;45.186;5.790;2023-09-07T08:00:37;99378.47;;;27.09;80.82
46129;BME280;31860;45.186;5.790;2023-09-07T08:03:04;99384.22;;;27.17;80.04
46129;BME280;31860;45.186;5.790;2023-09-07T08:05:34;99382.09;;;27.22;79.53
46129;BME280;31860;45.186;5.790;2023-09-07T08:08:00;99372.78;;;27.28;79.47
46129;BME280;31860;45.186;5.790;2023-09-07T08:10:25;99374.22;;;27.33;78.74
46129;BME280;31860;45.186;5.790;2023-09-07T08:12:54;99373.06;;;27.37;78.15
46129;BME280;31860;45.186;5.790;2023-09-07T08:15:20;99383.41;;;27.43;78.95
46129;BME280;31860;45.186;5.790;2023-09-07T08:17:47;99379.25;;;27.52;78.39
46129;BME280;31860;45.186;5.790;2023-09-07T08:20:13;99379.91;;;27.55;77.76
46129;BME280;31860;45.186;5.790;2023-09-07T08:22:39;99385.84;;;27.60;77.44
46129;BME280;31860;45.186;5.790;2023-09-07T08:25:07;99378.34;;;27.65;77.77
46129;BME280;31860;45.186;5.790;2023-09-07T08:27:32;99376.22;;;27.70;77.02
46129;BME280;31860;45.186;5.790;2023-09-07T08:29:58;99374.94;;;27.76;76.23
46129;BME280;31860;45.186;5.790;2023-09-07T08:32:24;99379.91;;;27.82;75.78
46129;BME280;31860;45.186;5.790;2023-09-07T08:34:50;99371.66;;;27.85;75.46
46129;BME280;31860;45.186;5.790;2023-09-07T08:37:16;99368.75;;;27.88;74.97
46129;BME280;31860;45.186;5.790;2023-09-07T08:39:42;99371.13;;;27.92;74.74
46129;BME280;31860;45.186;5.790;2023-09-07T08:42:07;99372.56;;;27.98;74.36
46129;BME280;31860;45.186;5.790;2023-09-07T08:44:34;99371.38;;;28.02;74.55
46129;BME280;31860;45.186;5.790;2023-09-07T08:47:01;99370.84;;;28.09;74.00
46129;BME280;31860;45.186;5.790;2023-09-07T08:49:28;99370.31;;;28.17;73.90
46129;BME280;31860;45.186;5.790;2023-09-07T08:51:58;99372.59;;;28.23;73.41
46129;BME280;31860;45.186;5.790;2023-09-07T08:54:24;99367.66;;;28.30;73.36
46129;BME280;31860;45.186;5.790;2023-09-07T08:56:50;99372.63;;;28.36;73.38
46129;BME280;31860;45.186;5.790;2023-09-07T08:59:15;99370.34;;;28.42;72.45
46129;BME280;31860;45.186;5.790;2023-09-07T09:01:41;99372.63;;;28.48;72.86
46129;BME280;31860;45.186;5.790;2023-09-07T09:04:07;99362.31;;;28.55;71.82
46129;BME280;31860;45.186;5.790;2023-09-07T09:06:32;99371.69;;;28.62;71.37
46129;BME280;31860;45.186;5.790;2023-09-07T09:08:58;99366.72;;;28.68;71.33
46129;BME280;31860;45.186;5.790;2023-09-07T09:11:24;99361.13;;;28.71;70.13
46129;BME280;31860;45.186;5.790;2023-09-07T09:13:51;99365.22;;;28.77;69.97
46129;BME280;31860;45.186;5.790;2023-09-07T09:16:17;99361.22;;;28.82;69.70
46129;BME280;31860;45.186;5.790;2023-09-07T09:18:53;99361.75;;;28.87;67.37
46129;BME280;31860;45.186;5.790;2023-09-07T09:21:20;99357.00;;;28.91;67.65
46129;BME280;31860;45.186;5.790;2023-09-07T09:23:47;99352.16;;;28.96;66.96
46129;BME280;31860;45.186;5.790;2023-09-07T09:26:13;99344.72;;;28.99;66.47
46129;BME280;31860;45.186;5.790;2023-09-07T09:28:38;99347.94;;;29.05;66.37
46129;BME280;31860;45.186;5.790;2023-09-07T09:31:04;99339.53;;;29.09;66.13
46129;BME280;31860;45.186;5.790;2023-09-07T09:33:32;99342.66;;;29.16;66.74
46129;BME280;31860;45.186;5.790;2023-09-07T09:36:00;99339.63;;;29.20;66.38
46129;BME280;31860;45.186;5.790;2023-09-07T09:38:26;99343.91;;;29.23;65.74
46129;BME280;31860;45.186;5.790;2023-09-07T09:40:52;99338.53;;;29.23;64.86
46129;BME280;31860;45.186;5.790;2023-09-07T09:43:20;99336.31;;;29.17;64.00
46129;BME280;31860;45.186;5.790;2023-09-07T09:45:46;99332.19;;;29.24;64.17
46129;BME280;31860;45.186;5.790;2023-09-07T09:48:13;99337.00;;;29.31;63.81
46129;BME280;31860;45.186;5.790;2023-09-07T09:50:40;99335.44;;;29.40;64.28
46129;BME280;31860;45.186;5.790;2023-09-07T09:53:05;99332.19;;;29.47;63.90
46129;BME280;31860;45.186;5.790;2023-09-07T09:55:32;99335.28;;;29.54;62.99
46129;BME280;31860;45.186;5.790;2023-09-07T09:57:58;99325.88;;;29.59;62.21
46129;BME280;31860;45.186;5.790;2023-09-07T10:00:24;99324.31;;;29.68;61.30
46129;BME280;31860;45.186;5.790;2023-09-07T10:03:11;99324.63;;;29.76;60.47
46129;BME280;31860;45.186;5.790;2023-09-07T10:05:38;99323.09;;;29.84;61.03
46129;BME280;31860;45.186;5.790;2023-09-07T10:08:09;99319.69;;;29.94;60.05
46129;BME280;31860;45.186;5.790;2023-09-07T10:10:36;99320.78;;;30.02;59.85
46129;BME280;31860;45.186;5.790;2023-09-07T10:13:01;99314.72;;;30.11;59.75
46129;BME280;31860;45.186;5.790;2023-09-07T10:15:27;99312.88;;;30.23;59.08
46129;BME280;31860;45.186;5.790;2023-09-07T10:18:32;99305.69;;;30.34;57.22
46129;BME280;31860;45.186;5.790;2023-09-07T10:20:58;99310.25;;;30.67;57.55
46129;BME280;31860;45.186;5.790;2023-09-07T10:26:04;99303.63;;;30.71;56.66
46129;BME280;31860;45.186;5.790;2023-09-07T10:28:30;99302.66;;;30.61;57.02
46129;BME280;31860;45.186;5.790;2023-09-07T10:31:03;99299.09;;;30.49;57.00
46129;BME280;31860;45.186;5.790;2023-09-07T10:33:34;99290.88;;;30.40;57.20
46129;BME280;31860;45.186;5.790;2023-09-07T10:36:00;99292.72;;;30.39;58.52
46129;BME280;31860;45.186;5.790;2023-09-07T10:38:27;99291.00;;;30.38;58.91
46129;BME280;31860;45.186;5.790;2023-09-07T10:40:57;99289.28;;;30.37;59.08
46129;BME280;31860;45.186;5.790;2023-09-07T10:43:24;99289.28;;;30.37;58.84
46129;BME280;31860;45.186;5.790;2023-09-07T10:45:49;99282.03;;;30.38;59.07
46129;BME280;31860;45.186;5.790;2023-09-07T10:48:16;99286.47;;;30.39;58.75
46129;BME280;31860;45.186;5.790;2023-09-07T10:50:43;99277.28;;;30.41;58.44
46129;BME280;31860;45.186;5.790;2023-09-07T10:53:11;99271.75;;;30.43;58.29
46129;BME280;31860;45.186;5.790;2023-09-07T10:55:40;99276.16;;;30.44;57.38
46129;BME280;31860;45.186;5.790;2023-09-07T10:58:06;99271.63;;;30.44;57.08
46129;BME280;31860;45.186;5.790;2023-09-07T11:00:34;99273.47;;;30.44;56.07
46129;BME280;31860;45.186;5.790;2023-09-07T11:03:06;99269.91;;;30.43;54.68
46129;BME280;31860;45.186;5.790;2023-09-07T11:05:33;99259.84;;;30.45;55.56
46129;BME280;31860;45.186;5.790;2023-09-07T11:08:00;99265.25;;;30.45;55.22
46129;BME280;31860;45.186;5.790;2023-09-07T11:10:26;99262.53;;;30.45;54.90
46129;BME280;31860;45.186;5.790;2023-09-07T11:12:51;99249.94;;;30.46;54.57
46129;BME280;31860;45.186;5.790;2023-09-07T11:15:18;99251.66;;;30.47;53.96
46129;BME280;31860;45.186;5.790;2023-09-07T11:17:44;99246.25;;;30.47;53.69
46129;BME280;31860;45.186;5.790;2023-09-07T11:20:11;99236.31;;;30.47;53.54
46129;BME280;31860;45.186;5.790;2023-09-07T11:22:36;99231.53;;;30.51;53.70
46129;BME280;31860;45.186;5.790;2023-09-07T11:25:05;99229.47;;;30.54;53.54
46129;BME280;31860;45.186;5.790;2023-09-07T11:27:31;99232.03;;;30.56;53.08
46129;BME280;31860;45.186;5.790;2023-09-07T11:29:57;99231.03;;;30.57;52.65
46129;BME280;31860;45.186;5.790;2023-09-07T11:32:23;99234.47;;;30.59;52.53
46129;BME280;31860;45.186;5.790;2023-09-07T11:34:50;99230.66;;;30.61;52.18
46129;BME280;31860;45.186;5.790;2023-09-07T11:37:23;99227.97;;;30.61;51.10
46129;BME280;31860;45.186;5.790;2023-09-07T11:39:48;99223.44;;;30.62;50.92
46129;BME280;31860;45.186;5.790;2023-09-07T11:42:14;99221.47;;;30.64;50.63
46129;BME280;31860;45.186;5.790;2023-09-07T11:44:40;99221.34;;;30.65;50.16
46129;BME280;31860;45.186;5.790;2023-09-07T11:47:05;99221.34;;;30.65;49.62
46129;BME280;31860;45.186;5.790;2023-09-07T11:49:32;99223.91;;;30.67;49.26
46129;BME280;31860;45.186;5.790;2023-09-07T11:51:57;99218.38;;;30.68;48.84
46129;BME280;31860;45.186;5.790;2023-09-07T11:54:23;99214.59;;;30.71;48.58
46129;BME280;31860;45.186;5.790;2023-09-07T11:56:48;99208.78;;;30.75;48.81
46129;BME280;31860;45.186;5.790;2023-09-07T11:59:14;99208.56;;;30.78;48.94
46129;BME280;31860;45.186;5.790;2023-09-07T12:01:39;99204.88;;;30.79;48.39
46129;BME280;31860;45.186;5.790;2023-09-07T12:04:05;99202.91;;;30.81;47.68
46129;BME280;31860;45.186;5.790;2023-09-07T12:06:31;99207.44;;;30.81;47.18
46129;BME280;31860;45.186;5.790;2023-09-07T12:09:01;99202.91;;;30.81;46.68
46129;BME280;31860;45.186;5.790;2023-09-07T12:11:27;99200.22;;;30.81;46.82
46129;BME280;31860;45.186;5.790;2023-09-07T12:13:52;99195.56;;;30.84;46.48
46129;BME280;31860;45.186;5.790;2023-09-07T12:16:18;99194.59;;;30.85;46.18
46129;BME280;31860;45.186;5.790;2023-09-07T12:18:43;99182.81;;;30.86;45.96
46129;BME280;31860;45.186;5.790;2023-09-07T12:21:08;99182.69;;;30.87;46.25
46129;BME280;31860;45.186;5.790;2023-09-07T12:23:34;99177.88;;;30.91;45.58
46129;BME280;31860;45.186;5.790;2023-09-07T12:26:01;99176.78;;;30.93;45.34
46129;BME280;31860;45.186;5.790;2023-09-07T12:28:26;99178.50;;;30.94;45.27
46129;BME280;31860;45.186;5.790;2023-09-07T12:30:52;99174.66;;;30.97;44.77
46129;BME280;31860;45.186;5.790;2023-09-07T12:33:17;99172.84;;;30.97;44.67
46129;BME280;31860;45.186;5.790;2023-09-07T12:35:43;99177.25;;;30.98;44.32
46129;BME280;31860;45.186;5.790;2023-09-07T12:38:08;99170.75;;;31.01;44.26
46129;BME280;31860;45.186;5.790;2023-09-07T12:40:35;99170.59;;;31.02;44.50
46129;BME280;31860;45.186;5.790;2023-09-07T12:43:01;99167.78;;;31.04;44.04
46129;BME280;31860;45.186;5.790;2023-09-07T12:45:26;99175.63;;;31.07;44.00
46129;BME280;31860;45.186;5.790;2023-09-07T12:47:52;99169.22;;;31.08;43.55
46129;BME280;31860;45.186;5.790;2023-09-07T12:50:17;99165.78;;;31.06;43.84
46129;BME280;31860;45.186;5.790;2023-09-07T12:52:42;99156.59;;;31.08;43.77
46129;BME280;31860;45.186;5.790;2023-09-07T12:55:08;99156.47;;;31.10;43.52
46129;BME280;31860;45.186;5.790;2023-09-07T12:57:34;99158.19;;;31.11;43.63